Time;durP1;ratioP1;P1;durP2;ratioP2;P2;SDS_P1;SDS_P2;PMS_P1;PMS_P2;Temp;Humidity;BMP_temperature;BMP_pressure;BME280_temperature;BME280_humidity;BME280_pressure;Samples;Min_cycle;Max_cycle;Signal;HPM_P1;HPM_P2
2021/01/03 00:01:14;;;;;;;9.67;8.70;;;5.00;96.60;;;;;;10488775;28;20251;-82
2021/01/03 00:06:16;;;;;;;8.10;7.40;;;5.00;95.90;;;;;;10447297;28;20221;-81
2021/01/03 00:11:18;;;;;;;9.73;8.73;;;5.00;96.00;;;;;;10452415;28;20253;-83
2021/01/03 00:16:20;;;;;;;9.73;8.70;;;5.00;96.10;;;;;;10497454;28;20250;-81
2021/01/03 00:21:22;;;;;;;8.77;7.97;;;5.00;95.90;;;;;;10504933;28;20213;-81
2021/01/03 00:26:24;;;;;;;8.30;7.57;;;4.90;95.90;;;;;;10508076;28;20208;-83
2021/01/03 00:31:26;;;;;;;9.13;8.23;;;4.90;95.70;;;;;;10517837;28;20311;-82
2021/01/03 00:36:29;;;;;;;8.60;7.70;;;4.90;95.70;;;;;;10493015;28;20692;-81
2021/01/03 00:41:31;;;;;;;8.43;7.63;;;4.90;95.90;;;;;;10527792;28;20259;-84
2021/01/03 00:46:32;;;;;;;9.20;8.27;;;4.90;95.70;;;;;;10528509;28;20236;-82
2021/01/03 00:51:35;;;;;;;8.87;8.00;;;4.90;95.60;;;;;;10494480;28;20244;-83
2021/01/03 00:56:37;;;;;;;8.93;8.13;;;4.90;95.60;;;;;;10490186;28;20197;-82
2021/01/03 01:01:38;;;;;;;7.83;7.10;;;4.90;95.40;;;;;;10454584;28;20225;-82
2021/01/03 01:06:41;;;;;;;9.03;8.13;;;4.90;95.60;;;;;;10462393;28;20244;-83
2021/01/03 01:11:43;;;;;;;8.57;7.67;;;4.90;95.50;;;;;;10473805;28;20208;-83
2021/01/03 01:16:45;;;;;;;9.03;8.13;;;4.90;95.30;;;;;;10475425;28;20185;-83
2021/01/03 01:21:47;;;;;;;8.53;7.70;;;4.90;95.30;;;;;;10475123;28;20239;-84
2021/01/03 01:26:49;;;;;;;9.00;8.20;;;4.90;95.40;;;;;;10447690;28;20247;-81
2021/01/03 01:31:51;;;;;;;9.30;8.40;;;4.90;95.20;;;;;;10464345;28;20276;-84
2021/01/03 01:36:53;;;;;;;8.97;8.07;;;4.90;95.60;;;;;;10464488;28;20189;-82
2021/01/03 01:41:55;;;;;;;9.03;8.17;;;4.90;95.40;;;;;;10470371;28;20227;-84
2021/01/03 01:47:03;;;;;;;8.30;7.50;;;4.90;95.10;;;;;;10466159;28;20715;-82
2021/01/03 01:52:06;;;;;;;9.73;8.77;;;4.80;95.20;;;;;;10472792;28;20224;-84
2021/01/03 01:57:17;;;;;;;9.20;8.30;;;4.80;95.50;;;;;;10477973;28;20201;-83
2021/01/03 02:02:22;;;;;;;10.97;8.03;;;4.90;95.70;;;;;;10446062;28;20216;-82
2021/01/03 02:07:29;;;;;;;9.43;8.43;;;4.90;95.80;;;;;;10483706;28;20216;-82
2021/01/03 02:12:35;;;;;;;10.00;9.10;;;4.90;96.00;;;;;;10491812;28;20220;-84
2021/01/03 02:17:36;;;;;;;9.90;9.00;;;4.90;96.60;;;;;;10488315;28;20200;-83
2021/01/03 02:22:41;;;;;;;10.23;9.10;;;4.90;97.10;;;;;;10506091;28;20246;-83
2021/01/03 02:27:59;;;;;;;10.50;9.60;;;4.80;97.50;;;;;;10521908;28;20234;-82
2021/01/03 02:33:09;;;;;;;10.90;9.90;;;4.70;98.00;;;;;;10507864;28;20208;-82
2021/01/03 02:38:13;;;;;;;11.87;10.67;;;4.60;98.50;;;;;;10490511;28;20322;-83
2021/01/03 02:43:16;;;;;;;12.07;10.97;;;4.50;99.00;;;;;;10501066;28;20235;-82
2021/01/03 02:48:21;;;;;;;12.13;10.70;;;4.50;99.10;;;;;;10484886;28;20215;-82
2021/01/03 02:53:23;;;;;;;12.70;11.40;;;4.40;99.70;;;;;;10501284;28;20303;-83
2021/01/03 02:58:25;;;;;;;12.80;11.50;;;4.30;99.90;;;;;;10497367;28;20268;-85
2021/01/03 03:03:27;;;;;;;14.17;12.70;;;4.30;99.90;;;;;;10501723;28;20759;-84
2021/01/03 03:08:28;;;;;;;13.40;12.10;;;4.20;99.90;;;;;;10506223;28;20224;-82
2021/01/03 03:13:31;;;;;;;12.80;11.60;;;4.20;99.90;;;;;;10511294;28;20251;-82
2021/01/03 03:18:32;;;;;;;14.67;12.50;;;4.10;99.90;;;;;;10517907;28;20185;-83
2021/01/03 03:23:34;;;;;;;15.27;13.80;;;4.10;99.90;;;;;;10492724;28;20218;-82
2021/01/03 03:28:36;;;;;;;14.73;13.27;;;4.10;99.90;;;;;;10499040;28;20223;-82
2021/01/03 03:33:38;;;;;;;14.90;13.50;;;4.10;99.90;;;;;;10514499;28;20216;-82
2021/01/03 03:38:40;;;;;;;15.60;14.00;;;4.10;99.90;;;;;;10512110;28;20304;-82
2021/01/03 03:43:43;;;;;;;15.90;14.30;;;4.10;99.90;;;;;;10518117;28;20224;-82
2021/01/03 03:48:45;;;;;;;14.37;13.07;;;4.00;99.90;;;;;;10519299;28;20583;-83
2021/01/03 03:53:47;;;;;;;16.30;14.63;;;4.10;99.90;;;;;;10538400;28;20262;-82
2021/01/03 03:58:49;;;;;;;14.60;13.13;;;4.10;99.90;;;;;;10479958;28;20330;-83
2021/01/03 04:03:51;;;;;;;15.17;13.67;;;4.10;99.90;;;;;;10475869;28;20223;-83
2021/01/03 04:08:53;;;;;;;15.27;13.83;;;4.10;99.90;;;;;;10478486;28;20233;-82
2021/01/03 04:13:55;;;;;;;15.27;13.70;;;4.10;99.90;;;;;;10477505;28;20763;-83
2021/01/03 04:18:57;;;;;;;15.27;13.77;;;4.10;99.90;;;;;;10487352;28;20186;-82
2021/01/03 04:23:58;;;;;;;15.00;13.60;;;4.10;99.90;;;;;;10449557;28;20251;-82
2021/01/03 04:29:01;;;;;;;15.80;14.30;;;4.00;99.90;;;;;;10472317;28;20227;-82
2021/01/03 04:34:02;;;;;;;16.00;14.50;;;4.00;99.90;;;;;;10453086;28;20299;-82
2021/01/03 04:39:05;;;;;;;15.13;13.63;;;4.10;99.90;;;;;;10463515;28;20717;-82
2021/01/03 04:44:14;;;;;;;15.57;14.00;;;4.10;99.90;;;;;;10442787;28;20256;-83
2021/01/03 04:49:25;;;;;;;15.93;14.30;;;4.00;99.90;;;;;;10444746;28;20221;-83
2021/01/03 04:54:26;;;;;;;16.90;15.20;;;4.00;99.90;;;;;;10460297;28;20217;-83
2021/01/03 04:59:39;;;;;;;16.60;15.00;;;4.00;99.90;;;;;;10457312;28;20221;-83
2021/01/03 05:05:07;;;;;;;15.43;13.93;;;4.00;99.90;;;;;;10461949;28;20681;-83
2021/01/03 05:10:12;;;;;;;14.90;13.40;;;4.00;99.90;;;;;;10447347;28;20216;-82
2021/01/03 05:15:22;;;;;;;15.80;14.20;;;4.00;99.90;;;;;;10463811;28;20229;-83
2021/01/03 05:20:23;;;;;;;15.53;14.03;;;4.00;99.90;;;;;;10459447;28;20201;-83
2021/01/03 05:25:40;;;;;;;15.43;13.93;;;4.00;99.90;;;;;;10459197;28;20225;-84
2021/01/03 05:30:42;;;;;;;15.43;13.93;;;4.00;99.90;;;;;;10443836;28;20192;-83
2021/01/03 05:35:48;;;;;;;16.20;14.67;;;4.00;99.90;;;;;;10474769;28;20729;-83
2021/01/03 05:40:51;;;;;;;16.17;14.70;;;4.10;99.90;;;;;;10442619;28;20199;-84
2021/01/03 05:46:04;;;;;;;15.93;14.37;;;4.10;99.90;;;;;;10459974;28;20217;-83
2021/01/03 05:51:11;;;;;;;15.57;13.97;;;4.10;99.90;;;;;;10442901;28;20213;-83
2021/01/03 05:56:22;;;;;;;15.50;13.90;;;4.10;99.90;;;;;;10460794;28;20648;-83
2021/01/03 06:01:29;;;;;;;15.30;13.80;;;4.10;99.90;;;;;;10469949;28;20220;-83
2021/01/03 06:07:02;;;;;;;13.80;12.40;;;4.10;99.90;;;;;;10500110;28;20208;-83
2021/01/03 06:12:07;;;;;;;14.50;13.10;;;4.10;99.90;;;;;;10484686;28;20592;-84
2021/01/03 06:17:32;;;;;;;14.43;13.03;;;4.10;99.90;;;;;;10488452;28;20197;-83
2021/01/03 06:22:41;;;;;;;15.33;13.87;;;4.00;99.90;;;;;;10495251;28;20592;-83
2021/01/03 06:27:49;;;;;;;16.50;14.90;;;4.00;99.90;;;;;;10499337;28;20220;-82
2021/01/03 06:33:42;;;;;;;16.87;15.17;;;4.00;99.90;;;;;;10499135;28;20216;-82
2021/01/03 06:39:12;;;;;;;15.07;13.57;;;4.10;99.90;;;;;;10518256;28;20193;-85
2021/01/03 06:44:58;;;;;;;16.90;15.20;;;4.00;99.90;;;;;;10517088;28;20303;-83
2021/01/03 06:50:29;;;;;;;15.60;14.00;;;4.10;99.90;;;;;;10489386;28;20258;-84
2021/01/03 06:56:10;;;;;;;15.30;13.80;;;4.10;99.90;;;;;;10492071;28;20587;-85
2021/01/03 07:01:18;;;;;;;15.97;14.43;;;4.00;99.90;;;;;;10492179;28;20240;-83
2021/01/03 07:06:21;;;;;;;15.97;14.43;;;4.00;99.90;;;;;;10511095;28;20218;-85
2021/01/03 07:11:40;;;;;;;15.80;14.27;;;4.00;99.90;;;;;;10510645;28;20211;-81
2021/01/03 07:17:02;;;;;;;16.03;14.37;;;4.10;99.90;;;;;;10491519;28;20220;-82
2021/01/03 07:22:07;;;;;;;15.97;14.40;;;4.10;99.90;;;;;;10494585;28;20303;-82
2021/01/03 07:27:32;;;;;;;15.67;14.07;;;4.10;99.90;;;;;;10505652;28;20232;-82
2021/01/03 07:32:47;;;;;;;15.30;13.80;;;4.10;99.90;;;;;;10505715;28;20303;-83
2021/01/03 07:37:51;;;;;;;13.83;12.53;;;4.10;99.90;;;;;;10507724;28;20200;-82
2021/01/03 07:43:01;;;;;;;16.17;14.57;;;4.10;99.90;;;;;;10507912;28;20250;-85
2021/01/03 07:48:04;;;;;;;15.77;14.27;;;4.10;99.90;;;;;;10492451;28;20719;-83
2021/01/03 07:53:26;;;;;;;16.47;14.87;;;4.10;99.90;;;;;;10513360;28;20224;-82
2021/01/03 07:58:27;;;;;;;17.47;15.67;;;4.00;99.90;;;;;;10504308;28;20671;-82
2021/01/03 08:03:31;;;;;;;17.30;15.50;;;4.00;99.90;;;;;;10513259;28;20215;-85
2021/01/03 08:08:33;;;;;;;18.33;16.43;;;4.00;99.90;;;;;;10490940;28;20219;-83
2021/01/03 08:13:39;;;;;;;17.57;15.77;;;4.00;99.90;;;;;;10501195;28;20272;-83
2021/01/03 08:18:58;;;;;;;19.03;17.03;;;4.00;99.90;;;;;;10470093;28;20215;-83
2021/01/03 08:24:09;;;;;;;17.33;15.53;;;4.00;99.90;;;;;;10488131;28;20616;-81
2021/01/03 08:29:21;;;;;;;16.97;15.17;;;4.00;99.90;;;;;;10473779;28;20221;-82
2021/01/03 08:34:29;;;;;;;16.63;14.90;;;4.10;99.90;;;;;;10462959;28;20236;-83
2021/01/03 08:39:30;;;;;;;15.90;14.30;;;4.10;99.90;;;;;;10444886;28;20197;-83
2021/01/03 08:44:35;;;;;;;17.80;16.00;;;4.10;99.90;;;;;;10445911;28;20705;-82
2021/01/03 08:49:39;;;;;;;15.73;14.03;;;4.10;99.90;;;;;;10445909;28;20228;-82
2021/01/03 08:54:40;;;;;;;15.70;14.10;;;4.20;99.90;;;;;;10462087;28;20308;-83
2021/01/03 08:59:44;;;;;;;15.13;13.53;;;4.20;99.90;;;;;;10521216;28;20191;-83
2021/01/03 09:04:47;;;;;;;15.20;13.63;;;4.20;99.90;;;;;;10501544;28;20307;-83
2021/01/03 09:09:50;;;;;;;15.37;13.90;;;4.30;99.90;;;;;;10507367;28;20307;-83
2021/01/03 09:14:53;;;;;;;14.47;13.10;;;4.20;99.90;;;;;;10515005;28;20248;-82
2021/01/03 09:20:01;;;;;;;15.57;13.97;;;4.30;99.90;;;;;;10490158;28;20204;-82
2021/01/03 09:25:07;;;;;;;14.90;13.30;;;4.30;99.90;;;;;;10500832;28;20216;-82
2021/01/03 09:30:13;;;;;;;15.13;13.73;;;4.30;99.90;;;;;;10491976;28;20227;-82
2021/01/03 09:35:26;;;;;;;14.40;12.90;;;4.30;99.90;;;;;;10483622;28;20322;-82
2021/01/03 09:40:37;;;;;;;13.90;12.70;;;4.30;99.90;;;;;;10484515;28;20651;-84
2021/01/03 09:45:59;;;;;;;14.23;12.73;;;4.30;99.90;;;;;;10517040;28;20212;-83
2021/01/03 09:51:08;;;;;;;14.43;13.03;;;4.30;99.90;;;;;;10500870;28;20220;-81
2021/01/03 09:56:20;;;;;;;14.43;13.03;;;4.30;99.90;;;;;;10474179;28;20417;-82
2021/01/03 10:01:31;;;;;;;15.17;13.67;;;4.40;99.90;;;;;;10496109;28;20852;-82
2021/01/03 10:06:38;;;;;;;14.73;13.20;;;4.40;99.90;;;;;;10477677;28;20289;-83
2021/01/03 10:11:40;;;;;;;14.47;13.07;;;4.50;99.90;;;;;;10486426;28;20308;-83
2021/01/03 10:16:43;;;;;;;14.67;13.17;;;4.50;99.90;;;;;;10495685;28;20266;-82
2021/01/03 10:21:46;;;;;;;14.30;12.87;;;4.50;99.90;;;;;;10497578;28;20232;-83
2021/01/03 10:27:12;;;;;;;16.20;14.60;;;4.40;99.90;;;;;;10515715;28;20266;-81
2021/01/03 10:32:14;;;;;;;15.27;13.63;;;4.40;99.90;;;;;;10545233;28;20231;-82
2021/01/03 10:37:17;;;;;;;15.67;14.13;;;4.40;99.90;;;;;;10512784;28;20219;-82
2021/01/03 10:42:19;;;;;;;16.50;14.80;;;4.40;99.90;;;;;;10545166;28;20605;-83
2021/01/03 10:47:20;;;;;;;16.70;15.10;;;4.30;99.90;;;;;;10508743;28;20819;-83
2021/01/03 10:52:23;;;;;;;17.73;15.93;;;4.40;99.90;;;;;;10482186;28;20220;-84
2021/01/03 10:57:24;;;;;;;15.60;14.10;;;4.40;99.90;;;;;;10469398;28;20197;-84
2021/01/03 11:02:26;;;;;;;16.67;14.97;;;4.30;99.90;;;;;;10501696;28;20758;-84
2021/01/03 11:07:28;;;;;;;16.87;15.13;;;4.30;99.90;;;;;;10505229;28;20209;-84
2021/01/03 11:12:30;;;;;;;15.87;14.27;;;4.20;99.90;;;;;;10511714;28;20235;-84
2021/01/03 11:17:32;;;;;;;15.73;14.13;;;4.30;99.90;;;;;;10470915;28;20220;-83
2021/01/03 11:22:34;;;;;;;16.50;14.83;;;4.20;99.90;;;;;;10485110;28;20212;-82
2021/01/03 11:27:36;;;;;;;16.13;14.53;;;4.20;99.90;;;;;;10489400;28;20235;-83
2021/01/03 11:32:38;;;;;;;15.93;14.33;;;4.20;99.90;;;;;;10485531;28;20244;-83
2021/01/03 11:37:40;;;;;;;16.23;14.50;;;4.10;99.90;;;;;;10480292;28;20198;-83
2021/01/03 11:42:42;;;;;;;17.13;15.37;;;4.10;99.90;;;;;;10469052;28;20315;-83
2021/01/03 11:47:44;;;;;;;17.00;15.30;;;4.10;99.90;;;;;;10479211;28;20220;-84
2021/01/03 11:52:46;;;;;;;17.47;14.57;;;4.10;99.90;;;;;;10488770;28;20224;-82
2021/01/03 11:57:48;;;;;;;18.13;16.40;;;4.10;99.90;;;;;;10510806;28;20191;-84
2021/01/03 12:02:49;;;;;;;17.57;15.67;;;4.10;99.90;;;;;;10496222;28;20587;-84
2021/01/03 12:07:52;;;;;;;17.33;15.63;;;4.10;99.90;;;;;;10516538;28;20584;-83
2021/01/03 12:12:54;;;;;;;18.47;16.60;;;4.10;99.90;;;;;;10490870;28;20274;-84
2021/01/03 12:17:56;;;;;;;18.57;16.63;;;4.10;99.90;;;;;;10474087;28;20718;-83
2021/01/03 12:22:58;;;;;;;17.50;15.80;;;4.00;99.90;;;;;;10475760;28;20222;-84
2021/01/03 12:28:00;;;;;;;18.40;16.60;;;4.00;99.90;;;;;;10491470;28;20223;-84
2021/01/03 12:46:57;;;;;;;18.80;16.80;;;4.20;99.90;;;;;;10423048;28;20205;-84
2021/01/03 13:04:37;;;;;;;20.60;18.40;;;4.30;99.90;;;;;;10451285;28;20231;-84
2021/01/03 13:29:21;;;;;;;20.23;18.07;;;4.50;99.90;;;;;;10371167;28;20232;-84
2021/01/03 13:34:23;;;;;;;17.50;15.67;;;4.60;99.90;;;;;;10446537;28;20263;-84
2021/01/03 13:39:24;;;;;;;20.60;18.40;;;4.60;99.90;;;;;;10482998;28;20181;-84
2021/01/03 13:44:27;;;;;;;20.53;18.20;;;4.70;99.90;;;;;;10468590;28;20217;-84
2021/01/03 13:49:29;;;;;;;21.20;18.93;;;4.70;99.90;;;;;;10464685;28;20224;-84
2021/01/03 13:54:30;;;;;;;23.47;18.83;;;4.70;99.90;;;;;;10445966;28;20311;-84
2021/01/03 13:59:34;;;;;;;19.43;17.20;;;4.70;99.90;;;;;;10429773;28;20229;-84
2021/01/03 14:04:35;;;;;;;21.33;19.03;;;4.80;99.90;;;;;;10447114;28;20251;-84
2021/01/03 14:09:37;;;;;;;20.23;17.40;;;4.80;99.90;;;;;;10463938;28;20221;-85
2021/01/03 14:14:40;;;;;;;20.87;17.47;;;4.80;99.90;;;;;;10449284;28;20231;-84
2021/01/03 14:19:42;;;;;;;20.83;18.53;;;4.80;99.90;;;;;;10463440;28;20197;-84
2021/01/03 14:24:43;;;;;;;20.67;18.53;;;4.80;99.90;;;;;;10463633;28;20304;-85
2021/01/03 14:29:46;;;;;;;20.93;18.53;;;4.80;99.90;;;;;;10502855;28;20226;-85
2021/01/03 14:34:50;;;;;;;21.60;19.10;;;4.80;99.90;;;;;;10502370;28;20216;-85
2021/01/03 14:39:57;;;;;;;20.80;18.60;;;4.80;99.90;;;;;;10487245;28;20215;-85
2021/01/03 14:45:11;;;;;;;21.67;19.33;;;4.90;99.90;;;;;;10489518;28;20230;-85
2021/01/03 14:50:48;;;;;;;23.97;19.10;;;4.90;99.90;;;;;;10481401;28;20598;-85
2021/01/03 14:56:13;;;;;;;22.70;19.57;;;4.90;99.90;;;;;;10478721;28;20251;-85
2021/01/03 15:01:28;;;;;;;26.63;20.80;;;4.90;99.90;;;;;;10483124;28;20216;-85
2021/01/03 15:06:49;;;;;;;23.27;20.30;;;4.90;99.90;;;;;;10478356;28;20238;-84
2021/01/03 15:11:56;;;;;;;16.63;14.70;;;4.90;99.90;;;;;;10489709;28;20293;-83
2021/01/03 15:17:08;;;;;;;22.73;19.93;;;4.90;99.90;;;;;;10509912;28;20181;-85
2021/01/03 15:22:13;;;;;;;21.80;19.50;;;5.00;99.90;;;;;;10508804;28;20243;-85
2021/01/03 15:27:23;;;;;;;21.80;18.63;;;4.90;99.90;;;;;;10509708;28;20220;-84
2021/01/03 15:32:28;;;;;;;22.93;19.70;;;5.00;99.90;;;;;;10472899;28;20225;-84
2021/01/03 15:37:47;;;;;;;24.40;19.90;;;4.90;99.90;;;;;;10447546;28;20220;-85
2021/01/03 15:42:59;;;;;;;22.07;19.43;;;4.90;99.90;;;;;;10470097;28;20240;-85
2021/01/03 15:48:02;;;;;;;23.80;19.87;;;4.90;99.90;;;;;;10503010;28;20224;-84
2021/01/03 15:53:07;;;;;;;24.23;20.40;;;4.90;99.90;;;;;;10498877;28;20251;-84
2021/01/03 15:58:09;;;;;;;22.00;19.57;;;4.90;99.90;;;;;;10487164;28;20258;-85
2021/01/03 16:03:11;;;;;;;22.70;20.17;;;5.00;99.90;;;;;;10498226;28;20228;-83
2021/01/03 16:08:14;;;;;;;23.13;19.83;;;5.00;99.90;;;;;;10498152;28;20945;-81
2021/01/03 16:13:15;;;;;;;23.40;19.83;;;5.00;99.90;;;;;;10502401;28;20216;-81
2021/01/03 16:18:20;;;;;;;21.97;19.00;;;5.00;99.90;;;;;;10496108;28;20196;-81
2021/01/03 16:23:55;;;;;;;23.90;19.77;;;5.00;99.90;;;;;;10500244;28;20292;-82
2021/01/03 16:29:28;;;;;;;20.93;18.73;;;5.00;99.90;;;;;;10479108;28;20263;-82
2021/01/03 16:34:47;;;;;;;21.67;18.70;;;5.00;99.90;;;;;;10506110;28;20216;-82
2021/01/03 16:40:15;;;;;;;21.27;18.67;;;5.00;99.90;;;;;;10487145;28;20618;-82
2021/01/03 16:45:36;;;;;;;21.37;18.97;;;5.00;99.90;;;;;;10493375;28;20247;-83
2021/01/03 16:50:43;;;;;;;21.53;18.47;;;5.00;99.90;;;;;;10514248;28;20204;-82
2021/01/03 16:55:55;;;;;;;22.53;19.40;;;5.00;99.90;;;;;;10518241;28;20204;-82
2021/01/03 17:01:14;;;;;;;21.60;19.10;;;5.00;99.90;;;;;;10515029;28;20986;-83
2021/01/03 17:06:38;;;;;;;21.40;18.23;;;5.00;99.90;;;;;;10486322;28;20223;-82
2021/01/03 17:11:50;;;;;;;23.57;20.30;;;5.00;99.90;;;;;;10470299;28;20244;-82
2021/01/03 17:16:58;;;;;;;22.47;19.60;;;4.90;99.90;;;;;;10493065;28;20197;-81
2021/01/03 17:22:10;;;;;;;23.80;21.23;;;5.00;99.90;;;;;;10479855;28;20243;-82
2021/01/03 17:27:36;;;;;;;22.67;20.07;;;5.00;99.90;;;;;;10495484;28;20250;-82
2021/01/03 17:32:57;;;;;;;24.33;19.67;;;5.00;99.90;;;;;;10510372;28;20235;-82
2021/01/03 17:38:20;;;;;;;25.30;21.30;;;5.00;99.90;;;;;;10503824;28;20593;-82
2021/01/03 17:43:21;;;;;;;22.07;19.73;;;5.00;99.90;;;;;;10496230;28;20228;-82
2021/01/03 17:48:30;;;;;;;24.70;20.10;;;5.00;99.90;;;;;;10500602;28;20299;-82
2021/01/03 17:53:36;;;;;;;28.03;22.53;;;5.00;99.90;;;;;;10497411;28;20228;-83
2021/01/03 17:58:38;;;;;;;23.10;20.57;;;4.90;99.90;;;;;;10500423;28;20216;-83
2021/01/03 18:03:41;;;;;;;24.57;21.23;;;4.90;99.90;;;;;;10501329;28;20248;-82
2021/01/03 18:08:43;;;;;;;24.53;21.00;;;4.90;99.90;;;;;;10498772;28;20258;-82
2021/01/03 18:13:45;;;;;;;24.20;20.63;;;4.90;99.90;;;;;;10508073;28;20232;-82
2021/01/03 18:18:47;;;;;;;23.03;20.27;;;4.90;99.90;;;;;;10488676;28;20639;-82
2021/01/03 18:23:49;;;;;;;26.00;22.00;;;4.90;99.90;;;;;;10497713;28;20224;-82
2021/01/03 18:28:51;;;;;;;28.90;25.90;;;4.90;99.90;;;;;;10477718;28;21035;-82
2021/01/03 18:33:53;;;;;;;27.43;24.53;;;4.90;99.90;;;;;;10454522;28;20303;-82
2021/01/03 18:38:55;;;;;;;25.13;22.50;;;4.80;99.90;;;;;;10471823;28;20201;-82
2021/01/03 18:43:57;;;;;;;28.00;24.43;;;4.70;99.90;;;;;;10460241;28;20233;-81
2021/01/03 18:48:59;;;;;;;27.50;23.10;;;4.60;99.90;;;;;;10484164;28;20218;-82
2021/01/03 18:54:02;;;;;;;28.27;24.23;;;4.60;99.90;;;;;;10469265;28;20216;-82
2021/01/03 18:59:04;;;;;;;27.00;22.80;;;4.60;99.90;;;;;;10491752;28;20889;-82
2021/01/03 19:04:06;;;;;;;26.87;23.20;;;4.50;99.90;;;;;;10523300;28;20220;-82
2021/01/03 19:09:11;;;;;;;26.20;23.37;;;4.50;99.90;;;;;;10489948;28;20263;-82
2021/01/03 19:14:13;;;;;;;28.50;22.30;;;4.50;99.90;;;;;;10507256;28;20282;-82
2021/01/03 19:19:17;;;;;;;30.13;25.67;;;4.50;99.90;;;;;;10499599;28;20193;-82
2021/01/03 19:24:19;;;;;;;27.07;23.37;;;4.50;99.90;;;;;;10506378;28;20220;-82
2021/01/03 19:29:21;;;;;;;28.10;24.70;;;4.50;99.90;;;;;;10480158;28;20225;-82
2021/01/03 19:34:24;;;;;;;27.80;23.50;;;4.50;99.90;;;;;;10475790;28;20281;-82
2021/01/03 19:39:30;;;;;;;25.63;22.13;;;4.50;99.90;;;;;;10507367;28;20193;-82
2021/01/03 19:44:34;;;;;;;20.80;17.37;;;4.50;99.90;;;;;;10512170;28;20223;-82
2021/01/03 19:49:36;;;;;;;28.27;23.60;;;4.50;99.90;;;;;;10530701;28;21143;-82
2021/01/03 19:54:39;;;;;;;29.00;23.60;;;4.50;99.90;;;;;;10510843;28;20220;-81
2021/01/03 19:59:43;;;;;;;29.93;25.20;;;4.50;99.90;;;;;;10507254;28;20246;-82
2021/01/03 20:04:45;;;;;;;30.07;24.63;;;4.50;99.90;;;;;;10509023;28;20259;-82
2021/01/03 20:09:48;;;;;;;30.53;26.03;;;4.50;99.90;;;;;;10488772;28;20220;-82
2021/01/03 20:14:49;;;;;;;29.60;25.80;;;4.60;99.90;;;;;;10506023;28;20236;-82
2021/01/03 20:19:51;;;;;;;28.40;24.90;;;4.60;99.90;;;;;;10493458;28;20193;-82
2021/01/03 20:24:53;;;;;;;30.63;25.50;;;4.60;99.90;;;;;;10496668;28;20217;-82
2021/01/03 20:29:55;;;;;;;30.27;25.03;;;4.60;99.90;;;;;;10496075;28;20209;-82
2021/01/03 20:34:57;;;;;;;33.47;26.73;;;4.50;99.90;;;;;;10494393;28;20220;-82
2021/01/03 20:39:59;;;;;;;31.03;26.17;;;4.50;99.90;;;;;;10497880;28;20644;-82
2021/01/03 20:45:01;;;;;;;32.17;26.00;;;4.50;99.90;;;;;;10496890;28;20299;-82
2021/01/03 20:50:04;;;;;;;29.27;24.57;;;4.50;99.90;;;;;;10491977;28;20224;-82
2021/01/03 20:55:09;;;;;;;31.67;26.30;;;4.50;99.90;;;;;;10500427;28;20220;-82
2021/01/03 21:00:14;;;;;;;28.80;24.67;;;4.60;99.90;;;;;;10485836;28;20283;-82
2021/01/03 21:05:19;;;;;;;30.57;24.60;;;4.50;99.90;;;;;;10485035;28;20224;-82
2021/01/03 21:10:21;;;;;;;32.20;27.17;;;4.50;99.90;;;;;;10489058;28;20227;-82
2021/01/03 21:15:24;;;;;;;33.00;28.20;;;4.40;99.90;;;;;;10493907;28;20681;-82
2021/01/03 21:20:26;;;;;;;34.57;28.50;;;4.30;99.90;;;;;;10494596;28;20618;-82
2021/01/03 21:25:33;;;;;;;33.70;28.30;;;4.30;99.90;;;;;;10476397;28;20248;-82
2021/01/03 21:30:49;;;;;;;37.53;28.30;;;4.30;99.90;;;;;;10511464;28;20221;-82
2021/01/03 21:36:04;;;;;;;34.30;28.97;;;4.40;99.90;;;;;;10468083;28;20442;-82
2021/01/03 21:41:32;;;;;;;32.53;27.83;;;4.40;99.90;;;;;;10454994;28;20773;-82
2021/01/03 21:46:45;;;;;;;35.93;28.70;;;4.40;99.90;;;;;;10473058;28;20292;-82
2021/01/03 21:52:01;;;;;;;33.20;26.90;;;4.50;99.90;;;;;;10471992;28;20662;-83
2021/01/03 21:57:30;;;;;;;35.90;28.90;;;4.50;99.90;;;;;;10456390;28;20188;-82
2021/01/03 22:03:09;;;;;;;35.97;30.37;;;4.40;99.90;;;;;;10506593;28;20217;-82
2021/01/03 22:08:23;;;;;;;33.17;28.53;;;4.40;99.90;;;;;;10485326;28;20225;-82
2021/01/03 22:13:58;;;;;;;35.87;27.40;;;4.40;99.90;;;;;;10459853;28;20570;-82
2021/01/03 22:19:20;;;;;;;31.50;26.63;;;4.40;99.90;;;;;;10521118;28;20192;-82
2021/01/03 22:24:42;;;;;;;29.97;25.00;;;4.40;99.90;;;;;;10502238;28;20225;-82
2021/01/03 22:29:52;;;;;;;29.60;26.23;;;4.50;99.90;;;;;;10487432;28;20224;-82
2021/01/03 22:35:01;;;;;;;30.93;26.60;;;4.50;99.90;;;;;;10517237;28;20696;-81
2021/01/03 22:40:14;;;;;;;30.80;26.57;;;4.50;99.90;;;;;;10487237;28;20200;-82
2021/01/03 22:45:24;;;;;;;30.13;25.90;;;4.50;99.90;;;;;;10467905;28;20224;-82
2021/01/03 22:50:48;;;;;;;32.00;26.73;;;4.50;99.90;;;;;;10505147;28;20618;-83
2021/01/03 22:56:02;;;;;;;31.43;26.47;;;4.50;99.90;;;;;;10492169;28;20224;-84
2021/01/03 23:01:09;;;;;;;31.87;27.00;;;4.50;99.90;;;;;;10481671;28;20212;-83
2021/01/03 23:06:41;;;;;;;32.20;26.50;;;4.50;99.90;;;;;;10500741;28;20241;-84
2021/01/03 23:11:46;;;;;;;32.53;26.77;;;4.50;99.90;;;;;;10525156;28;20426;-84
2021/01/03 23:17:02;;;;;;;30.80;26.17;;;4.50;99.90;;;;;;10531556;28;20204;-83
2021/01/03 23:22:08;;;;;;;34.67;27.87;;;4.60;99.90;;;;;;10507051;28;20591;-83
2021/01/03 23:27:15;;;;;;;28.87;25.67;;;4.60;99.90;;;;;;10496944;28;20216;-84
2021/01/03 23:32:17;;;;;;;31.47;26.80;;;4.60;99.90;;;;;;10480505;28;20362;-84
2021/01/03 23:37:34;;;;;;;32.23;26.10;;;4.70;99.90;;;;;;10538874;28;20191;-84
2021/01/03 23:42:44;;;;;;;30.07;25.03;;;4.70;99.90;;;;;;10521898;28;20317;-83
2021/01/03 23:48:23;;;;;;;30.40;25.83;;;4.70;99.90;;;;;;10484078;28;20255;-83
2021/01/03 23:53:58;;;;;;;29.30;24.13;;;4.70;99.90;;;;;;10480713;28;20311;-83
2021/01/03 23:59:13;;;;;;;29.80;25.40;;;4.70;99.90;;;;;;10503590;28;20208;-84
